createdAt,value
2018-08-31T00:00:43.023Z,101453.34
2018-08-31T00:04:54.992Z,101459.70
2018-08-31T00:08:04.893Z,101463.02
2018-08-31T00:11:14.090Z,101466.68
2018-08-31T00:14:12.388Z,101463.63
2018-08-31T00:17:11.385Z,101461.91
2018-08-31T00:20:09.652Z,101461.05
2018-08-31T00:23:08.746Z,101466.44
2018-08-31T00:26:30.449Z,101465.57
2018-08-31T00:30:10.780Z,101457.48
2018-08-31T00:33:21.283Z,101463.49
2018-08-31T00:36:31.389Z,101461.91
2018-08-31T00:39:43.957Z,101466.43
2018-08-31T00:43:11.270Z,101469.50
2018-08-31T00:46:10.571Z,101470.47
2018-08-31T00:49:08.805Z,101472.81
2018-08-31T00:52:06.739Z,101472.44
2018-08-31T00:55:05.912Z,101472.81
2018-08-31T00:58:03.980Z,101470.61
2018-08-31T01:01:02.081Z,101481.73
2018-08-31T01:04:01.289Z,101482.59
2018-08-31T01:07:00.599Z,101486.29
2018-08-31T01:09:59.528Z,101483.59
2018-08-31T01:12:58.684Z,101479.17
2018-08-31T01:15:56.981Z,101477.83
2018-08-31T01:18:55.992Z,101481.87
2018-08-31T01:21:55.031Z,101481.87
2018-08-31T01:24:53.205Z,101488.13
2018-08-31T01:27:51.333Z,101484.08
2018-08-31T01:30:50.445Z,101485.77
2018-08-31T01:33:48.436Z,101479.55
2018-08-31T01:36:47.774Z,101481.73
2018-08-31T01:39:45.826Z,101479.55
2018-08-31T01:42:45.258Z,101483.46
2018-08-31T01:45:43.461Z,101476.34
2018-08-31T01:48:41.522Z,101482.59
2018-08-31T01:51:40.025Z,101477.69
2018-08-31T01:54:38.834Z,101479.91
2018-08-31T01:57:37.915Z,101482.59
2018-08-31T02:00:36.962Z,101489.81
2018-08-31T02:03:36.194Z,101488.85
2018-08-31T02:06:34.277Z,101479.42
2018-08-31T02:09:32.587Z,101477.11
2018-08-31T02:12:30.882Z,101478.55
2018-08-31T02:15:30.367Z,101482.11
2018-08-31T02:18:28.437Z,101485.19
2018-08-31T02:21:27.309Z,101488.37
2018-08-31T02:24:26.278Z,101480.77
2018-08-31T02:27:24.533Z,101469.98
2018-08-31T02:30:22.362Z,101467.29
2018-08-31T02:33:21.778Z,101469.98
2018-08-31T02:36:20.676Z,101469.12
2018-08-31T02:39:19.145Z,101467.77
2018-08-31T02:42:18.054Z,101474.65
2018-08-31T02:45:17.458Z,101478.20
2018-08-31T02:48:16.456Z,101474.27
2018-08-31T02:51:14.630Z,101477.83
2018-08-31T02:54:13.647Z,101479.66
2018-08-31T02:57:11.985Z,101482.35
2018-08-31T03:00:10.828Z,101477.58
2018-08-31T03:03:08.877Z,101476.23
2018-08-31T03:06:07.082Z,101482.97
2018-08-31T03:09:05.627Z,101487.15
2018-08-31T03:12:03.531Z,101488.36
2018-08-31T03:15:02.801Z,101486.63
2018-08-31T03:18:01.830Z,101485.80
2018-08-31T03:21:00.145Z,101480.89
2018-08-31T03:23:59.641Z,101483.59
2018-08-31T03:26:57.857Z,101485.42
2018-08-31T03:29:56.765Z,101488.59
2018-08-31T03:32:56.005Z,101489.59
2018-08-31T03:35:53.954Z,101494.98
2018-08-31T03:38:53.087Z,101496.81
2018-08-31T03:41:52.181Z,101498.65
2018-08-31T03:44:50.470Z,101498.65
2018-08-31T03:47:49.142Z,101494.70
2018-08-31T03:50:47.040Z,101504.52
2018-08-31T03:53:45.865Z,101504.90
2018-08-31T03:56:45.121Z,101505.00
2018-08-31T03:59:44.293Z,101499.61
2018-08-31T04:02:43.545Z,101506.73
2018-08-31T04:05:42.797Z,101504.52
2018-08-31T04:08:41.214Z,101507.59
2018-08-31T04:11:39.284Z,101505.38
2018-08-31T04:14:37.616Z,101507.59
2018-08-31T04:17:36.668Z,101503.55
2018-08-31T04:20:34.695Z,101506.25
2018-08-31T04:23:33.831Z,101501.72
2018-08-31T04:26:33.072Z,101507.59
2018-08-31T04:29:31.013Z,101509.80
2018-08-31T04:32:29.449Z,101507.11
2018-08-31T04:35:27.814Z,101516.55
2018-08-31T04:38:27.108Z,101519.23
2018-08-31T04:41:26.115Z,101516.03
2018-08-31T04:44:25.697Z,101520.06
2018-08-31T04:47:24.804Z,101517.76
2018-08-31T04:50:24.111Z,101512.85
2018-08-31T04:53:22.996Z,101508.46
2018-08-31T04:56:23.222Z,101514.20
2018-08-31T04:59:22.116Z,101516.41
2018-08-31T05:02:20.420Z,101505.86
2018-08-31T05:05:19.460Z,101502.44
2018-08-31T05:08:19.015Z,101510.29
2018-08-31T05:11:17.908Z,101517.51
2018-08-31T05:14:17.230Z,101517.02
2018-08-31T05:17:16.618Z,101517.12
2018-08-31T05:20:15.635Z,101514.56
2018-08-31T05:23:14.877Z,101517.61
2018-08-31T05:26:13.427Z,101519.47
2018-08-31T05:29:12.375Z,101518.95
2018-08-31T05:32:10.283Z,101511.01
2018-08-31T05:35:09.292Z,101508.45
2018-08-31T05:38:08.617Z,101516.88
2018-08-31T05:41:06.470Z,101524.09
2018-08-31T05:44:04.683Z,101531.70
2018-08-31T05:47:02.721Z,101526.30
2018-08-31T05:50:01.009Z,101527.55
2018-08-31T05:52:59.783Z,101525.83
2018-08-31T05:55:58.364Z,101522.64
2018-08-31T05:58:56.467Z,101524.00
2018-08-31T06:01:55.590Z,101522.64
2018-08-31T06:04:53.626Z,101522.17
2018-08-31T06:07:51.642Z,101522.17
2018-08-31T06:10:49.704Z,101514.91
2018-08-31T06:13:48.042Z,101513.56
2018-08-31T06:16:46.134Z,101516.64
2018-08-31T06:19:44.609Z,101520.20
2018-08-31T06:22:43.194Z,101523.76
2018-08-31T06:25:41.365Z,101530.50
2018-08-31T06:28:39.386Z,101532.19
2018-08-31T06:31:37.455Z,101534.05
2018-08-31T06:34:35.468Z,101536.23
2018-08-31T06:37:33.717Z,101534.89
2018-08-31T06:40:31.769Z,101536.23
2018-08-31T06:43:29.589Z,101531.70
2018-08-31T06:46:27.512Z,101541.63
2018-08-31T06:49:26.677Z,101542.00
2018-08-31T06:52:24.928Z,101541.63
2018-08-31T06:55:22.937Z,101546.05
2018-08-31T06:58:20.901Z,101544.70
2018-08-31T07:01:20.169Z,101546.05
2018-08-31T07:04:19.713Z,101547.88
2018-08-31T07:07:18.289Z,101552.78
2018-08-31T07:10:16.554Z,101548.26
2018-08-31T07:13:14.935Z,101541.52
2018-08-31T07:16:13.899Z,101542.00
2018-08-31T07:19:12.036Z,101546.05
2018-08-31T07:22:09.842Z,101537.97
2018-08-31T07:25:07.986Z,101534.41
2018-08-31T07:28:06.132Z,101538.93
2018-08-31T07:31:05.424Z,101550.23
2018-08-31T07:34:03.309Z,101546.66
2018-08-31T07:37:01.300Z,101557.44
2018-08-31T07:40:00.311Z,101547.53
2018-08-31T07:42:58.895Z,101549.84
2018-08-31T07:45:57.574Z,101553.88
2018-08-31T07:48:55.582Z,101562.83
2018-08-31T07:51:53.677Z,101558.79
2018-08-31T07:54:51.829Z,101562.94
2018-08-31T07:57:49.600Z,101563.80
2018-08-31T08:00:47.634Z,101571.88
2018-08-31T08:03:45.967Z,101568.70
2018-08-31T08:06:43.994Z,101574.58
2018-08-31T08:09:42.490Z,101571.02
2018-08-31T08:12:41.721Z,101572.36
2018-08-31T08:15:40.093Z,101574.70
2018-08-31T08:18:38.348Z,101573.84
2018-08-31T08:21:36.686Z,101575.67
2018-08-31T08:24:34.811Z,101582.41
2018-08-31T08:27:32.764Z,101589.63
2018-08-31T08:30:30.944Z,101575.29
2018-08-31T08:33:29.147Z,101582.54
2018-08-31T08:36:27.206Z,101583.02
2018-08-31T08:39:25.057Z,101584.85
2018-08-31T08:42:23.264Z,101587.55
2018-08-31T08:45:21.320Z,101580.81
2018-08-31T08:48:19.778Z,101587.55
2018-08-31T08:51:17.657Z,101591.10
2018-08-31T08:54:15.973Z,101591.59
2018-08-31T08:57:14.925Z,101588.41
2018-08-31T09:00:13.273Z,101589.76
2018-08-31T09:03:11.330Z,101589.63
2018-08-31T09:06:09.469Z,101586.93
2018-08-31T09:09:07.481Z,101586.45
2018-08-31T09:12:05.953Z,101587.80
2018-08-31T09:15:03.939Z,101583.27
2018-08-31T09:18:02.097Z,101589.53
2018-08-31T09:21:00.092Z,101590.36
2018-08-31T09:23:58.450Z,101593.05
2018-08-31T09:26:56.783Z,101594.53
2018-08-31T09:29:55.500Z,101602.48
2018-08-31T09:32:53.789Z,101602.00
2018-08-31T09:35:52.026Z,101600.66
2018-08-31T09:38:51.089Z,101611.43
2018-08-31T09:41:49.477Z,101608.26
2018-08-31T09:44:47.610Z,101607.29
2018-08-31T09:47:45.690Z,101609.13
2018-08-31T09:50:44.786Z,101607.29
2018-08-31T09:53:43.112Z,101600.17
2018-08-31T09:56:41.155Z,101597.48
2018-08-31T09:59:39.571Z,101602.77
2018-08-31T10:02:43.464Z,101604.59
2018-08-31T10:05:41.565Z,101599.20
2018-08-31T10:08:39.534Z,101607.77
2018-08-31T10:11:37.919Z,101604.70
2018-08-31T10:14:35.876Z,101607.39
2018-08-31T10:17:34.350Z,101611.43
2018-08-31T10:20:32.544Z,101614.61
2018-08-31T10:23:30.727Z,101617.20
2018-08-31T10:26:28.887Z,101615.12
2018-08-31T10:29:27.031Z,101616.82
2018-08-31T10:32:25.041Z,101622.69
2018-08-31T10:35:23.324Z,101615.47
2018-08-31T10:38:21.325Z,101619.16
2018-08-31T10:41:21.766Z,101616.95
2018-08-31T10:44:19.995Z,101625.03
2018-08-31T10:47:18.129Z,101616.95
2018-08-31T10:50:17.072Z,101620.13
2018-08-31T10:53:15.122Z,101619.27
2018-08-31T10:56:14.186Z,101624.66
2018-08-31T10:59:12.291Z,101623.30
2018-08-31T11:02:10.273Z,101621.48
2018-08-31T11:05:08.371Z,101634.08
2018-08-31T11:08:06.263Z,101633.12
2018-08-31T11:11:04.321Z,101632.73
2018-08-31T11:14:03.223Z,101630.91
2018-08-31T11:17:01.656Z,101640.20
2018-08-31T11:20:00.326Z,101634.47
2018-08-31T11:22:58.501Z,101633.47
2018-08-31T11:25:56.364Z,101628.08
2018-08-31T11:28:54.670Z,101628.46
2018-08-31T11:31:52.630Z,101629.33
2018-08-31T11:34:50.863Z,101626.64
2018-08-31T11:37:48.849Z,101632.03
2018-08-31T11:40:47.138Z,101636.45
2018-08-31T11:43:50.357Z,101633.23
2018-08-31T11:46:48.570Z,101641.32
2018-08-31T11:49:46.941Z,101645.37
2018-08-31T11:52:45.358Z,101640.84
2018-08-31T11:55:44.661Z,101636.80
2018-08-31T11:58:42.833Z,101636.80
2018-08-31T12:01:49.269Z,101634.97
2018-08-31T12:04:47.460Z,101627.75
2018-08-31T12:07:45.695Z,101642.09
2018-08-31T12:10:43.789Z,101640.74
2018-08-31T12:13:41.589Z,101643.92
2018-08-31T12:16:39.887Z,101643.05
2018-08-31T12:19:37.733Z,101645.75
2018-08-31T12:22:35.854Z,101644.41
2018-08-31T12:25:33.860Z,101645.75
2018-08-31T12:28:33.102Z,101647.96
2018-08-31T12:31:31.162Z,101651.14
2018-08-31T12:34:30.282Z,101649.80
2018-08-31T12:37:29.128Z,101648.45
2018-08-31T12:40:28.323Z,101654.80
2018-08-31T12:43:26.318Z,101650.27
2018-08-31T12:46:24.680Z,101648.06
2018-08-31T12:49:22.442Z,101650.41
2018-08-31T12:52:20.580Z,101652.62
2018-08-31T12:55:18.329Z,101647.33
2018-08-31T12:58:16.666Z,101650.50
2018-08-31T13:01:14.470Z,101652.33
2018-08-31T13:04:12.977Z,101657.23
2018-08-31T13:07:11.022Z,101653.33
2018-08-31T13:10:09.064Z,101648.80
2018-08-31T13:13:07.179Z,101655.54
2018-08-31T13:16:06.560Z,101655.64
2018-08-31T13:19:05.272Z,101664.59
2018-08-31T13:22:03.395Z,101659.68
2018-08-31T13:25:01.451Z,101668.77
2018-08-31T13:27:59.574Z,101670.59
2018-08-31T13:30:58.200Z,101670.59
2018-08-31T13:33:57.282Z,101673.77
2018-08-31T13:37:10.641Z,101675.11
2018-08-31T13:40:08.940Z,101673.89
2018-08-31T13:43:07.857Z,101675.72
2018-08-31T13:46:07.400Z,101674.37
2018-08-31T13:49:05.393Z,101671.68
2018-08-31T13:52:03.402Z,101677.94
2018-08-31T13:55:02.393Z,101681.46
2018-08-31T13:58:00.626Z,101678.41
2018-08-31T14:00:58.720Z,101681.98
2018-08-31T14:03:57.847Z,101681.46
2018-08-31T14:06:56.989Z,101689.93
2018-08-31T14:09:55.102Z,101688.58
2018-08-31T14:12:54.684Z,101680.98
2018-08-31T14:15:54.334Z,101678.28
2018-08-31T14:18:52.997Z,101685.02
2018-08-31T14:21:51.118Z,101682.81
2018-08-31T14:24:49.380Z,101695.32
2018-08-31T14:27:47.300Z,101693.97
2018-08-31T14:30:45.496Z,101688.58
2018-08-31T14:33:44.555Z,101688.81
2018-08-31T14:36:42.565Z,101699.75
2018-08-31T14:39:41.490Z,101700.23
2018-08-31T14:42:39.708Z,101705.61
2018-08-31T14:45:38.735Z,101709.17
2018-08-31T14:48:36.783Z,101709.17
2018-08-31T14:51:34.886Z,101710.14
2018-08-31T14:54:33.738Z,101715.52
2018-08-31T14:57:31.926Z,101724.09
2018-08-31T15:00:30.140Z,101721.39
2018-08-31T15:03:28.094Z,101725.44
2018-08-31T15:06:27.081Z,101725.44
2018-08-31T15:09:24.966Z,101722.88
2018-08-31T15:12:23.066Z,101719.31
2018-08-31T15:15:22.166Z,101726.05
2018-08-31T15:18:21.295Z,101719.80
2018-08-31T15:21:19.416Z,101720.27
2018-08-31T15:24:18.136Z,101726.17
2018-08-31T15:27:16.357Z,101720.27
2018-08-31T15:30:14.736Z,101721.27
2018-08-31T15:33:12.697Z,101717.70
2018-08-31T15:36:10.914Z,101715.88
2018-08-31T15:39:08.976Z,101720.88
2018-08-31T15:42:07.218Z,101725.41
2018-08-31T15:45:05.276Z,101731.78
2018-08-31T15:48:04.362Z,101738.14
2018-08-31T15:51:02.235Z,101744.39
2018-08-31T15:54:00.488Z,101739.48
2018-08-31T15:56:59.147Z,101739.13
2018-08-31T15:59:57.060Z,101735.57
2018-08-31T16:02:55.055Z,101736.92
2018-08-31T16:05:53.088Z,101742.30
2018-08-31T16:08:51.051Z,101740.19
2018-08-31T16:11:50.121Z,101742.88
2018-08-31T16:14:48.238Z,101734.80
2018-08-31T16:17:47.310Z,101733.36
2018-08-31T16:20:46.231Z,101735.31
2018-08-31T16:23:44.174Z,101740.19
2018-08-31T16:26:42.224Z,101738.36
2018-08-31T16:29:43.284Z,101734.80
2018-08-31T16:32:41.362Z,101750.39
2018-08-31T16:35:39.721Z,101736.44
2018-08-31T16:38:37.681Z,101743.05
2018-08-31T16:41:35.764Z,101745.61
2018-08-31T16:44:33.553Z,101746.95
2018-08-31T16:47:32.911Z,101753.12
2018-08-31T16:50:30.679Z,101750.77
2018-08-31T16:53:30.205Z,101748.47
2018-08-31T16:56:29.976Z,101753.22
2018-08-31T16:59:27.816Z,101758.64
2018-08-31T17:02:25.853Z,101753.13
2018-08-31T17:05:24.128Z,101751.29
2018-08-31T17:08:22.190Z,101750.69
2018-08-31T17:11:20.233Z,101744.46
2018-08-31T17:14:19.281Z,101752.03
2018-08-31T17:17:17.552Z,101766.84
2018-08-31T17:20:16.665Z,101760.11
2018-08-31T17:23:15.649Z,101754.73
2018-08-31T17:26:14.544Z,101764.28
2018-08-31T17:29:18.754Z,101766.02
2018-08-31T17:32:22.938Z,101767.84
2018-08-31T17:35:26.912Z,101762.55
2018-08-31T17:38:26.211Z,101771.98
2018-08-31T17:41:24.054Z,101775.19
2018-08-31T17:44:23.158Z,101777.98
2018-08-31T17:47:23.519Z,101773.45
2018-08-31T17:50:23.549Z,101771.72
2018-08-31T17:53:22.358Z,101775.89
2018-08-31T17:56:21.586Z,101781.28
2018-08-31T17:59:21.789Z,101780.89
2018-08-31T18:02:21.364Z,101787.15
2018-08-31T18:05:20.876Z,101780.89
2018-08-31T18:08:19.272Z,101784.10
2018-08-31T18:11:18.661Z,101786.41
2018-08-31T18:14:16.853Z,101790.06
2018-08-31T18:17:15.952Z,101789.93
2018-08-31T18:20:15.049Z,101792.41
2018-08-31T18:23:14.335Z,101794.71
2018-08-31T18:26:13.516Z,101800.10
2018-08-31T18:29:11.696Z,101799.75
2018-08-31T18:32:11.446Z,101799.36
2018-08-31T18:35:10.755Z,101804.36
2018-08-31T18:38:09.953Z,101802.14
2018-08-31T18:41:09.162Z,101805.23
2018-08-31T18:44:08.365Z,101807.53
2018-08-31T18:47:06.955Z,101799.97
2018-08-31T18:50:06.769Z,101804.48
2018-08-31T18:53:05.870Z,101804.58
2018-08-31T18:56:04.974Z,101800.93
2018-08-31T18:59:03.182Z,101799.09
2018-08-31T19:02:02.279Z,101804.97
2018-08-31T19:05:01.584Z,101801.41
2018-08-31T19:08:01.058Z,101802.75
2018-08-31T19:11:00.440Z,101802.75
2018-08-31T19:13:59.827Z,101802.66
2018-08-31T19:16:59.484Z,101806.70
2018-08-31T19:19:58.492Z,101808.05
2018-08-31T19:22:56.856Z,101805.84
2018-08-31T19:25:55.866Z,101810.23
2018-08-31T19:28:54.112Z,101807.66
2018-08-31T19:31:52.112Z,101806.70
2018-08-31T19:34:51.214Z,101805.84
2018-08-31T19:37:50.420Z,101804.48
2018-08-31T19:40:48.425Z,101803.49
2018-08-31T19:43:47.498Z,101799.97
2018-08-31T19:46:46.767Z,101799.97
2018-08-31T19:49:45.500Z,101797.75
2018-08-31T19:52:43.862Z,101797.75
2018-08-31T19:55:42.750Z,101796.41
2018-08-31T19:58:40.941Z,101791.11
2018-08-31T20:01:40.040Z,101797.27
2018-08-31T20:04:39.072Z,101798.62
2018-08-31T20:07:37.126Z,101787.45
2018-08-31T20:10:35.184Z,101789.28
2018-08-31T20:13:33.570Z,101793.33
2018-08-31T20:16:32.582Z,101792.45
2018-08-31T20:19:30.973Z,101791.11
2018-08-31T20:22:33.588Z,101793.80
2018-08-31T20:25:31.832Z,101794.80
2018-08-31T20:28:33.385Z,101790.76
2018-08-31T20:31:31.465Z,101791.23
2018-08-31T20:34:30.877Z,101784.50
2018-08-31T20:37:29.767Z,101784.98
2018-08-31T20:40:28.795Z,101784.62
2018-08-31T20:43:26.741Z,101778.86
2018-08-31T20:46:26.130Z,101776.55
2018-08-31T20:49:25.754Z,101780.59
2018-08-31T20:52:25.088Z,101769.42
2018-08-31T20:55:24.373Z,101775.68
2018-08-31T20:58:23.808Z,101771.25
2018-08-31T21:01:21.952Z,101764.64
2018-08-31T21:04:21.065Z,101763.66
2018-08-31T21:07:21.286Z,101764.64
2018-08-31T21:10:19.537Z,101765.52
2018-08-31T21:13:18.631Z,101767.82
2018-08-31T21:16:17.909Z,101764.26
2018-08-31T21:19:15.985Z,101767.34
2018-08-31T21:22:15.307Z,101767.82
2018-08-31T21:25:14.134Z,101771.73
2018-08-31T21:28:12.203Z,101769.91
2018-08-31T21:31:11.303Z,101770.39
2018-08-31T21:34:09.529Z,101774.81
2018-08-31T21:37:07.534Z,101769.42
2018-08-31T21:40:05.796Z,101772.98
2018-08-31T21:43:03.551Z,101771.16
2018-08-31T21:46:01.694Z,101776.03
2018-08-31T21:48:59.619Z,101774.20
2018-08-31T21:51:57.748Z,101774.20
2018-08-31T21:54:55.731Z,101775.08
2018-08-31T21:57:55.055Z,101776.42
2018-08-31T22:00:53.414Z,101776.42
2018-08-31T22:03:52.717Z,101779.50
2018-08-31T22:06:51.913Z,101780.84
2018-08-31T22:09:50.562Z,101780.34
2018-08-31T22:12:50.425Z,101774.12
2018-08-31T22:15:48.770Z,101778.52
2018-08-31T22:18:47.502Z,101781.69
2018-08-31T22:21:45.843Z,101775.81
2018-08-31T22:24:43.738Z,101771.16
2018-08-31T22:27:41.828Z,101780.34
2018-08-31T22:30:39.995Z,101785.72
2018-08-31T22:33:39.298Z,101783.55
2018-08-31T22:36:39.423Z,101778.98
2018-08-31T22:39:37.774Z,101780.34
2018-08-31T22:42:36.001Z,101773.73
2018-08-31T22:45:33.971Z,101774.81
2018-08-31T22:48:32.602Z,101779.11
2018-08-31T22:51:31.863Z,101771.52
2018-08-31T22:54:31.783Z,101774.20
2018-08-31T22:57:31.498Z,101774.20
2018-08-31T23:00:30.568Z,101774.20
2018-08-31T23:03:28.989Z,101777.89
2018-08-31T23:06:28.287Z,101776.16
2018-08-31T23:09:27.374Z,101776.16
2018-08-31T23:12:25.360Z,101781.42
2018-08-31T23:15:24.484Z,101768.08
2018-08-31T23:18:23.424Z,101766.73
2018-08-31T23:21:23.604Z,101765.87
2018-08-31T23:24:22.841Z,101769.04
2018-08-31T23:27:23.220Z,101766.34
2018-08-31T23:30:23.451Z,101763.30
2018-08-31T23:33:22.548Z,101762.91
2018-08-31T23:36:20.628Z,101752.75
2018-08-31T23:39:19.819Z,101751.66
2018-08-31T23:42:19.443Z,101744.28
2018-08-31T23:45:19.051Z,101745.41
2018-08-31T23:48:17.935Z,101743.58
2018-08-31T23:51:17.656Z,101738.89
2018-08-31T23:54:16.858Z,101744.92
2018-08-31T23:57:15.347Z,101745.41
